Time;durP1;ratioP1;P1;durP2;ratioP2;P2;SDS_P1;SDS_P2;PMS_P1;PMS_P2;Temp;Humidity;BMP_temperature;BMP_pressure;BME280_temperature;BME280_humidity;BME280_pressure;Samples;Min_cycle;Max_cycle;Signal;HPM_P1;HPM_P2
2023/08/12 00:01:12;;;;;;;13.63;4.27;;;21.10;76.00;;;;;;5022955;28;20482;-79
2023/08/12 00:03:41;;;;;;;11.57;3.80;;;21.10;76.00;;;;;;5029671;28;21427;-80
2023/08/12 00:06:11;;;;;;;18.53;5.13;;;21.00;76.00;;;;;;5027154;28;20471;-78
2023/08/12 00:08:39;;;;;;;21.07;5.40;;;21.00;76.10;;;;;;5026520;28;21017;-79
2023/08/12 00:11:07;;;;;;;15.57;4.90;;;20.90;76.10;;;;;;5028069;28;20453;-79
2023/08/12 00:13:35;;;;;;;14.00;4.33;;;20.90;76.10;;;;;;5028925;28;20977;-80
2023/08/12 00:16:03;;;;;;;11.60;4.40;;;20.80;76.20;;;;;;5023172;28;20516;-79
2023/08/12 00:18:36;;;;;;;15.93;4.77;;;20.80;76.20;;;;;;5024550;28;20456;-80
2023/08/12 00:21:09;;;;;;;9.93;4.13;;;20.70;76.30;;;;;;5023398;28;20816;-79
2023/08/12 00:23:41;;;;;;;13.73;4.50;;;20.60;76.50;;;;;;5025444;28;20471;-79
2023/08/12 00:26:09;;;;;;;9.23;3.97;;;20.50;76.60;;;;;;5024799;28;20490;-79
2023/08/12 00:28:37;;;;;;;15.37;4.53;;;20.50;76.60;;;;;;5024565;28;20542;-80
2023/08/12 00:31:05;;;;;;;12.20;4.40;;;20.50;76.80;;;;;;5025146;28;20590;-79
2023/08/12 00:33:33;;;;;;;16.30;4.07;;;20.50;76.90;;;;;;5021712;28;20472;-79
2023/08/12 00:36:01;;;;;;;10.93;4.50;;;20.50;76.90;;;;;;5026716;28;20463;-79
2023/08/12 00:38:30;;;;;;;20.53;4.53;;;20.60;76.90;;;;;;5018342;28;20543;-79
2023/08/12 00:40:59;;;;;;;16.47;4.40;;;20.60;76.90;;;;;;5028238;28;20467;-79
2023/08/12 00:43:27;;;;;;;12.70;4.63;;;20.60;77.00;;;;;;5023437;28;20476;-79
2023/08/12 00:45:57;;;;;;;14.57;5.40;;;20.60;77.00;;;;;;5025381;28;20448;-79
2023/08/12 00:48:26;;;;;;;13.10;4.57;;;20.70;77.00;;;;;;5027383;28;20891;-79
2023/08/12 00:50:55;;;;;;;11.67;4.37;;;20.70;76.90;;;;;;5025989;28;20471;-79
2023/08/12 00:53:23;;;;;;;12.33;4.20;;;20.70;76.90;;;;;;5024439;28;20942;-80
2023/08/12 00:55:54;;;;;;;10.57;4.47;;;20.70;76.90;;;;;;5022998;28;20559;-80
2023/08/12 00:58:23;;;;;;;13.73;4.37;;;20.70;76.90;;;;;;5051900;28;20484;-78
2023/08/12 01:00:52;;;;;;;14.37;4.50;;;20.70;76.90;;;;;;5019599;28;20464;-79
2023/08/12 01:03:30;;;;;;;13.13;4.60;;;20.70;76.80;;;;;;5025596;28;20986;-82
2023/08/12 01:05:59;;;;;;;16.67;4.50;;;20.70;76.90;;;;;;5025658;28;20457;-80
2023/08/12 01:08:32;;;;;;;18.73;4.60;;;20.70;76.90;;;;;;5027649;28;20554;-80
2023/08/12 01:11:19;;;;;;;14.53;4.27;;;20.60;76.90;;;;;;5047528;28;20461;-80
2023/08/12 01:13:58;;;;;;;11.10;3.90;;;20.70;76.90;;;;;;5023494;28;20455;-80
2023/08/12 01:16:30;;;;;;;10.70;4.40;;;20.60;76.90;;;;;;5039427;28;20542;-79
2023/08/12 01:18:59;;;;;;;9.97;4.70;;;20.60;77.00;;;;;;5020943;28;21013;-80
2023/08/12 01:21:30;;;;;;;13.00;4.30;;;20.60;77.00;;;;;;5026221;28;20456;-81
2023/08/12 01:23:59;;;;;;;11.57;4.37;;;20.60;77.00;;;;;;5024021;28;20980;-79
2023/08/12 01:26:27;;;;;;;10.83;4.40;;;20.60;76.90;;;;;;5022204;28;21173;-79
2023/08/12 01:28:56;;;;;;;15.63;4.60;;;20.60;76.80;;;;;;5021713;28;20537;-78
2023/08/12 01:31:31;;;;;;;12.13;4.87;;;20.60;76.90;;;;;;5025823;28;20561;-78
2023/08/12 01:34:07;;;;;;;15.90;5.23;;;20.50;76.90;;;;;;5021628;28;20459;-79
2023/08/12 01:36:38;;;;;;;9.23;4.70;;;20.50;76.90;;;;;;5024053;28;20546;-80
2023/08/12 01:39:10;;;;;;;8.10;4.73;;;20.40;77.00;;;;;;5023915;28;22238;-79
2023/08/12 01:41:40;;;;;;;12.37;4.43;;;20.40;77.10;;;;;;5052654;28;20455;-80
2023/08/12 01:44:08;;;;;;;9.27;4.23;;;20.40;77.10;;;;;;5023473;28;20480;-79
2023/08/12 01:46:37;;;;;;;16.10;4.63;;;20.40;77.20;;;;;;5028742;28;20544;-80
2023/08/12 01:49:05;;;;;;;10.00;3.90;;;20.40;77.30;;;;;;5022133;28;20563;-80
2023/08/12 01:51:33;;;;;;;10.90;4.33;;;20.40;77.30;;;;;;5045322;28;20475;-80
2023/08/12 01:54:03;;;;;;;10.50;3.80;;;20.40;77.30;;;;;;5022134;28;20456;-80
2023/08/12 01:56:32;;;;;;;13.43;4.90;;;20.40;77.40;;;;;;5024566;28;20943;-79
2023/08/12 01:59:00;;;;;;;11.10;4.70;;;20.40;77.40;;;;;;5022397;28;20519;-80
2023/08/12 02:01:29;;;;;;;11.20;4.73;;;20.30;77.40;;;;;;5022725;28;20484;-81
2023/08/12 02:03:57;;;;;;;17.03;4.90;;;20.30;77.50;;;;;;5026400;28;20973;-79
2023/08/12 02:06:25;;;;;;;12.50;4.87;;;20.30;77.60;;;;;;5050410;28;20473;-80
2023/08/12 02:08:53;;;;;;;11.83;4.37;;;20.40;77.60;;;;;;5026547;28;20466;-81
2023/08/12 02:11:21;;;;;;;9.03;4.00;;;20.30;77.60;;;;;;5023657;28;20878;-80
2023/08/12 02:14:43;;;;;;;8.43;4.73;;;20.40;77.60;;;;;;5023686;28;20510;-80
2023/08/12 02:17:13;;;;;;;11.53;4.53;;;20.40;77.60;;;;;;5024960;28;20499;-80
2023/08/12 02:19:42;;;;;;;11.43;3.70;;;20.30;77.60;;;;;;5018666;28;20448;-79
2023/08/12 02:22:11;;;;;;;13.33;4.73;;;20.30;77.70;;;;;;5025198;28;20494;-80
2023/08/12 02:24:41;;;;;;;15.53;4.10;;;20.30;77.70;;;;;;5022712;28;20478;-80
2023/08/12 02:27:09;;;;;;;8.50;4.40;;;20.30;77.80;;;;;;5023690;28;20467;-80
2023/08/12 02:29:41;;;;;;;11.07;4.30;;;20.30;77.80;;;;;;5054206;28;20495;-80
2023/08/12 02:32:09;;;;;;;11.00;4.77;;;20.30;77.80;;;;;;5023888;28;20476;-78
2023/08/12 02:34:39;;;;;;;13.37;4.90;;;20.30;77.80;;;;;;5022493;28;20487;-80
2023/08/12 02:37:12;;;;;;;12.73;4.77;;;20.30;77.80;;;;;;5020976;28;20459;-80
2023/08/12 02:39:40;;;;;;;13.63;5.07;;;20.30;77.90;;;;;;5039218;28;20482;-81
2023/08/12 02:42:08;;;;;;;9.03;4.10;;;20.30;78.00;;;;;;5023406;28;21126;-79
2023/08/12 02:44:37;;;;;;;10.53;4.00;;;20.30;78.00;;;;;;5020515;28;20502;-79
2023/08/12 02:47:05;;;;;;;10.90;4.50;;;20.30;77.90;;;;;;5018625;28;20547;-78
2023/08/12 02:49:33;;;;;;;11.23;4.80;;;20.30;78.00;;;;;;5051941;28;20456;-81
2023/08/12 02:52:02;;;;;;;15.23;4.40;;;20.20;78.00;;;;;;5019742;28;20466;-79
2023/08/12 02:54:30;;;;;;;12.17;4.80;;;20.20;78.20;;;;;;5050058;28;20530;-80
2023/08/12 02:56:58;;;;;;;14.43;4.10;;;20.20;78.20;;;;;;5020527;28;20458;-81
2023/08/12 02:59:27;;;;;;;10.17;3.97;;;20.20;78.20;;;;;;5024524;28;20543;-81
2023/08/12 03:01:55;;;;;;;10.60;4.60;;;20.30;78.20;;;;;;5025890;28;20561;-80
2023/08/12 03:04:23;;;;;;;13.93;4.67;;;20.30;78.30;;;;;;5024946;28;20538;-79
2023/08/12 03:06:51;;;;;;;12.67;4.30;;;20.30;78.30;;;;;;5022062;28;20874;-79
2023/08/12 03:09:20;;;;;;;13.00;4.30;;;20.30;78.40;;;;;;5027517;28;21013;-81
2023/08/12 03:11:50;;;;;;;14.03;4.40;;;20.30;78.40;;;;;;5025770;28;20978;-80
2023/08/12 03:14:18;;;;;;;9.40;3.90;;;20.30;78.40;;;;;;5036689;28;20467;-81
2023/08/12 03:16:46;;;;;;;17.80;4.30;;;20.30;78.40;;;;;;5022882;28;20513;-79
2023/08/12 03:19:14;;;;;;;9.77;4.50;;;20.30;78.40;;;;;;5023062;28;21004;-83
2023/08/12 03:21:43;;;;;;;11.10;4.93;;;20.30;78.40;;;;;;5040235;28;20491;-80
2023/08/12 03:24:12;;;;;;;13.17;4.50;;;20.30;78.50;;;;;;5053662;28;20498;-79
2023/08/12 03:26:42;;;;;;;10.03;3.87;;;20.30;78.60;;;;;;5050293;28;20475;-80
2023/08/12 03:29:09;;;;;;;17.90;4.50;;;20.30;78.70;;;;;;5025037;28;20495;-81
2023/08/12 03:31:41;;;;;;;10.80;4.67;;;20.30;78.80;;;;;;5023000;28;20502;-80
2023/08/12 03:34:09;;;;;;;9.10;5.17;;;20.30;79.10;;;;;;5033209;28;20521;-81
2023/08/12 03:36:37;;;;;;;8.90;4.70;;;20.30;79.20;;;;;;5020928;28;20467;-79
2023/08/12 03:39:06;;;;;;;11.67;4.90;;;20.30;79.20;;;;;;5018639;28;20511;-79
2023/08/12 03:41:35;;;;;;;10.10;4.77;;;20.30;79.30;;;;;;5024228;28;20515;-79
2023/08/12 03:44:09;;;;;;;9.10;5.20;;;20.30;79.30;;;;;;5042250;28;20832;-79
2023/08/12 03:46:39;;;;;;;11.33;5.07;;;20.30;79.50;;;;;;5026440;28;20468;-80
2023/08/12 03:49:09;;;;;;;14.27;5.10;;;20.30;79.60;;;;;;5027259;28;20459;-80
2023/08/12 03:51:38;;;;;;;11.23;5.27;;;20.40;79.70;;;;;;5023735;28;20943;-81
2023/08/12 03:54:07;;;;;;;11.70;5.47;;;20.40;79.70;;;;;;5026473;28;20487;-80
2023/08/12 03:56:36;;;;;;;12.00;4.40;;;20.40;79.80;;;;;;5028030;28;20492;-80
2023/08/12 03:59:05;;;;;;;15.53;4.93;;;20.40;79.80;;;;;;5021248;28;20682;-80
2023/08/12 04:01:37;;;;;;;13.30;5.40;;;20.40;79.90;;;;;;5026697;28;20795;-79
2023/08/12 04:04:06;;;;;;;10.53;4.70;;;20.40;80.00;;;;;;5022507;28;20958;-80
2023/08/12 04:06:34;;;;;;;11.03;5.70;;;20.40;80.00;;;;;;5027009;28;20574;-80
2023/08/12 04:09:04;;;;;;;12.67;5.30;;;20.40;80.10;;;;;;5028969;28;20549;-81
2023/08/12 04:11:32;;;;;;;13.13;5.90;;;20.40;80.00;;;;;;5028049;28;20455;-81
2023/08/12 04:14:00;;;;;;;9.47;4.97;;;20.40;80.10;;;;;;5024781;28;20456;-81
2023/08/12 04:16:28;;;;;;;10.07;4.57;;;20.40;80.10;;;;;;5042495;28;20464;-81
2023/08/12 04:18:57;;;;;;;11.37;5.70;;;20.40;80.20;;;;;;5026356;28;20889;-81
2023/08/12 04:21:25;;;;;;;13.80;5.40;;;20.40;80.30;;;;;;5028375;28;20455;-82
2023/08/12 04:23:53;;;;;;;15.03;6.83;;;20.40;80.40;;;;;;5024709;28;20993;-80
2023/08/12 04:26:24;;;;;;;9.57;5.07;;;20.40;80.40;;;;;;5024449;28;20459;-82
2023/08/12 04:28:53;;;;;;;13.47;5.83;;;20.40;80.50;;;;;;5021696;28;20456;-82
2023/08/12 04:31:21;;;;;;;9.50;5.20;;;20.40;80.50;;;;;;5051054;28;20477;-81
2023/08/12 04:33:52;;;;;;;9.93;5.30;;;20.40;80.60;;;;;;5025207;28;20451;-82
2023/08/12 04:36:24;;;;;;;13.13;5.87;;;20.40;80.60;;;;;;5025088;28;20458;-81
2023/08/12 04:38:53;;;;;;;13.83;5.20;;;20.40;80.60;;;;;;5027746;28;20550;-80
2023/08/12 04:41:23;;;;;;;21.73;5.80;;;20.40;80.70;;;;;;5022418;28;20536;-78
2023/08/12 04:43:53;;;;;;;16.13;5.50;;;20.40;80.70;;;;;;5022254;28;20554;-81
2023/08/12 04:46:24;;;;;;;10.20;5.90;;;20.50;80.80;;;;;;5022302;28;20479;-79
2023/08/12 04:48:52;;;;;;;10.87;5.70;;;20.50;80.80;;;;;;5029106;28;20468;-80
2023/08/12 04:51:21;;;;;;;9.67;4.90;;;20.50;80.80;;;;;;5028336;28;20455;-79
2023/08/12 04:53:50;;;;;;;13.70;5.77;;;20.50;80.80;;;;;;5027304;28;20459;-79
2023/08/12 04:56:18;;;;;;;14.43;6.03;;;20.50;80.90;;;;;;5025228;28;20506;-78
2023/08/12 04:58:46;;;;;;;12.70;6.33;;;20.40;81.00;;;;;;5028570;28;21015;-81
2023/08/12 05:01:15;;;;;;;11.83;5.57;;;20.40;81.00;;;;;;5023255;28;20484;-80
2023/08/12 05:03:43;;;;;;;10.53;6.20;;;20.40;81.10;;;;;;5023544;28;21121;-80
2023/08/12 05:06:11;;;;;;;10.73;5.90;;;20.40;81.20;;;;;;5022369;28;20750;-81
2023/08/12 05:08:39;;;;;;;10.23;6.43;;;20.30;81.30;;;;;;5023980;28;20474;-80
2023/08/12 05:11:09;;;;;;;13.13;6.57;;;20.30;81.40;;;;;;5029541;28;20994;-78
2023/08/12 05:13:37;;;;;;;15.47;6.50;;;20.30;81.40;;;;;;5024625;28;20510;-78
2023/08/12 05:16:05;;;;;;;14.50;6.80;;;20.30;81.50;;;;;;5025037;28;20491;-79
2023/08/12 05:18:33;;;;;;;9.17;5.80;;;20.30;81.70;;;;;;5022962;28;20467;-80
2023/08/12 05:21:03;;;;;;;17.50;6.90;;;20.30;81.70;;;;;;5024515;28;20495;-80
2023/08/12 05:23:32;;;;;;;14.40;7.00;;;20.30;81.70;;;;;;5029423;28;20463;-80
2023/08/12 05:26:00;;;;;;;9.60;6.47;;;20.30;81.70;;;;;;5024692;28;20530;-82
2023/08/12 05:28:29;;;;;;;11.67;6.63;;;20.20;81.80;;;;;;5033395;28;20948;-80
2023/08/12 05:30:59;;;;;;;10.47;6.40;;;20.20;81.90;;;;;;5025464;28;20559;-80
2023/08/12 05:33:27;;;;;;;10.00;6.07;;;20.20;82.10;;;;;;5053047;28;20547;-80
2023/08/12 05:35:57;;;;;;;11.07;6.30;;;20.20;82.20;;;;;;5028808;28;20458;-81
2023/08/12 05:38:27;;;;;;;9.77;6.07;;;20.20;82.30;;;;;;5025270;28;21209;-83
2023/08/12 05:40:55;;;;;;;16.23;6.23;;;20.30;82.30;;;;;;5018740;28;21247;-82
2023/08/12 05:43:25;;;;;;;9.30;6.50;;;20.40;82.30;;;;;;5019662;28;20463;-78
2023/08/12 05:45:55;;;;;;;10.60;6.63;;;20.40;82.40;;;;;;5021935;28;20541;-79
2023/08/12 05:48:23;;;;;;;12.73;6.10;;;20.40;82.30;;;;;;5028891;28;20470;-81
2023/08/12 05:50:51;;;;;;;12.23;6.07;;;20.50;82.20;;;;;;5023642;28;20479;-82
2023/08/12 05:53:24;;;;;;;10.10;6.60;;;20.50;82.20;;;;;;5059195;28;20831;-81
2023/08/12 05:55:52;;;;;;;11.30;7.23;;;20.50;82.30;;;;;;5025951;28;20497;-81
2023/08/12 05:58:21;;;;;;;11.37;7.17;;;20.50;82.30;;;;;;5029892;28;20527;-80
2023/08/12 06:00:50;;;;;;;15.83;6.60;;;20.40;82.40;;;;;;5025110;28;20547;-81
2023/08/12 06:03:19;;;;;;;17.00;7.60;;;20.40;82.60;;;;;;5031009;28;20471;-80
2023/08/12 06:05:48;;;;;;;9.63;6.57;;;20.40;82.80;;;;;;5024397;28;20467;-81
2023/08/12 06:08:17;;;;;;;13.50;7.30;;;20.40;82.90;;;;;;5023895;28;21033;-82
2023/08/12 06:10:45;;;;;;;11.93;7.60;;;20.40;83.00;;;;;;5026686;28;20472;-81
2023/08/12 06:13:13;;;;;;;13.90;7.77;;;20.40;83.10;;;;;;5020912;28;20464;-81
2023/08/12 06:15:41;;;;;;;14.60;7.20;;;20.40;83.20;;;;;;5027126;28;20494;-82
2023/08/12 06:18:15;;;;;;;16.93;7.10;;;20.50;83.40;;;;;;5024512;28;20456;-82
2023/08/12 06:20:45;;;;;;;10.60;6.80;;;20.60;83.50;;;;;;5026765;28;20466;-80
2023/08/12 06:23:14;;;;;;;12.90;7.13;;;20.80;83.50;;;;;;5035433;28;20492;-80
2023/08/12 06:25:42;;;;;;;12.83;6.83;;;20.90;83.40;;;;;;5025519;28;20455;-82
2023/08/12 06:28:10;;;;;;;13.60;7.47;;;21.00;83.30;;;;;;5021709;28;20476;-81
2023/08/12 06:30:38;;;;;;;13.63;6.90;;;21.10;83.10;;;;;;5022671;28;20477;-80
2023/08/12 06:33:06;;;;;;;11.33;6.27;;;21.20;82.90;;;;;;5034822;28;20536;-80
2023/08/12 06:35:34;;;;;;;15.63;6.50;;;21.20;82.70;;;;;;5061811;28;20856;-79
2023/08/12 06:38:04;;;;;;;10.60;7.07;;;21.30;82.70;;;;;;5029079;28;20459;-81
2023/08/12 06:40:32;;;;;;;11.17;6.87;;;21.30;82.80;;;;;;5032549;28;20547;-82
2023/08/12 06:43:00;;;;;;;12.30;6.70;;;21.40;82.80;;;;;;5034335;28;21020;-81
2023/08/12 06:45:28;;;;;;;10.63;6.90;;;21.40;82.80;;;;;;5030936;28;21221;-81
2023/08/12 06:47:56;;;;;;;12.83;6.83;;;21.40;82.80;;;;;;5032661;28;20470;-80
2023/08/12 06:50:24;;;;;;;10.67;6.50;;;21.50;82.80;;;;;;5027225;28;20452;-79
2023/08/12 06:52:52;;;;;;;14.13;7.97;;;21.60;82.90;;;;;;5027777;28;20561;-82
2023/08/12 06:55:22;;;;;;;14.20;7.63;;;21.60;82.60;;;;;;5031370;28;20535;-81
2023/08/12 06:57:50;;;;;;;12.73;7.23;;;21.70;82.60;;;;;;5026700;28;20482;-80
2023/08/12 07:00:18;;;;;;;10.77;7.03;;;21.70;82.50;;;;;;5028962;28;20450;-80
2023/08/12 07:02:47;;;;;;;10.80;6.60;;;21.80;82.40;;;;;;5029364;28;20455;-80
2023/08/12 07:05:15;;;;;;;15.63;7.23;;;21.80;82.40;;;;;;5037821;28;20453;-81
2023/08/12 07:07:43;;;;;;;18.17;6.60;;;21.80;82.40;;;;;;5027218;28;20533;-82
2023/08/12 07:10:12;;;;;;;13.63;6.90;;;21.80;82.40;;;;;;5031889;28;20538;-82
2023/08/12 07:12:41;;;;;;;14.60;7.53;;;21.90;82.40;;;;;;5066998;28;21879;-81
2023/08/12 07:15:10;;;;;;;11.33;6.67;;;21.90;82.30;;;;;;5025408;28;20510;-81
2023/08/12 07:17:38;;;;;;;17.10;7.40;;;21.90;82.20;;;;;;5027130;28;20544;-81
2023/08/12 07:20:08;;;;;;;12.07;6.97;;;21.90;82.10;;;;;;5029818;28;20455;-81
2023/08/12 07:22:36;;;;;;;11.90;7.63;;;22.00;82.00;;;;;;5025332;28;20949;-81
2023/08/12 07:25:04;;;;;;;12.03;7.60;;;22.00;82.00;;;;;;5025583;28;20449;-81
2023/08/12 07:27:32;;;;;;;13.73;7.77;;;22.10;81.80;;;;;;5028004;28;20594;-80
2023/08/12 07:30:01;;;;;;;15.60;6.97;;;22.10;81.80;;;;;;5027000;28;20883;-78
2023/08/12 07:32:29;;;;;;;11.83;7.23;;;22.10;81.60;;;;;;5021248;28;20480;-78
2023/08/12 07:34:58;;;;;;;11.80;7.57;;;22.20;81.50;;;;;;5025845;28;20464;-78
2023/08/12 07:37:27;;;;;;;11.07;6.83;;;22.20;81.50;;;;;;5025302;28;20456;-78
2023/08/12 07:39:55;;;;;;;12.20;6.43;;;22.20;81.50;;;;;;5021431;28;20598;-79
2023/08/12 07:42:23;;;;;;;10.17;6.70;;;22.30;81.50;;;;;;5024479;28;20587;-80
2023/08/12 07:44:51;;;;;;;10.70;7.23;;;22.40;81.40;;;;;;5025866;28;20456;-79
2023/08/12 07:47:20;;;;;;;12.23;6.90;;;22.40;81.30;;;;;;5024196;28;20713;-79
2023/08/12 07:49:48;;;;;;;11.50;7.27;;;22.50;81.20;;;;;;5026632;28;20456;-80
2023/08/12 07:52:16;;;;;;;16.30;7.03;;;22.60;81.00;;;;;;5024373;28;20454;-78
2023/08/12 07:54:44;;;;;;;15.77;7.40;;;22.60;81.00;;;;;;5029974;28;20463;-79
2023/08/12 07:57:12;;;;;;;10.37;6.60;;;22.60;81.00;;;;;;5030830;28;20871;-79
2023/08/12 07:59:40;;;;;;;10.93;6.93;;;22.70;81.10;;;;;;5023182;28;20460;-79
2023/08/12 08:02:08;;;;;;;9.93;6.50;;;22.70;81.10;;;;;;5028535;28;20472;-78
2023/08/12 08:04:38;;;;;;;13.63;6.73;;;22.80;80.90;;;;;;5056001;28;20452;-78
2023/08/12 08:07:06;;;;;;;10.30;6.67;;;22.90;80.70;;;;;;5019661;28;20539;-78
2023/08/12 08:09:34;;;;;;;10.83;6.60;;;22.90;80.70;;;;;;5026739;28;20451;-79
2023/08/12 08:12:02;;;;;;;8.50;5.97;;;22.90;80.60;;;;;;5025709;28;20833;-80
2023/08/12 08:14:30;;;;;;;11.30;6.30;;;23.00;80.50;;;;;;5056366;28;20461;-79
2023/08/12 08:16:58;;;;;;;8.87;6.10;;;23.00;80.30;;;;;;5028617;28;20542;-79
2023/08/12 08:19:26;;;;;;;8.10;5.57;;;23.10;80.20;;;;;;5024507;28;20440;-80
2023/08/12 08:21:58;;;;;;;11.03;6.00;;;23.20;80.20;;;;;;5048762;28;20980;-79
2023/08/12 08:24:27;;;;;;;8.10;5.90;;;23.20;80.20;;;;;;5025489;28;20455;-79
2023/08/12 08:26:55;;;;;;;11.20;6.20;;;23.30;80.10;;;;;;5019958;28;20491;-79
2023/08/12 08:29:24;;;;;;;8.40;6.10;;;23.40;80.10;;;;;;5021763;28;20477;-78
2023/08/12 08:31:52;;;;;;;8.67;5.93;;;23.40;80.00;;;;;;5021801;28;20480;-78
2023/08/12 08:34:20;;;;;;;11.27;6.30;;;23.50;79.80;;;;;;5054055;28;20536;-79
2023/08/12 08:36:48;;;;;;;9.87;6.00;;;23.60;79.90;;;;;;5025435;28;21448;-78
2023/08/12 08:39:18;;;;;;;8.90;5.50;;;23.60;79.70;;;;;;4989415;28;1043794;-78
2023/08/12 08:41:49;;;;;;;14.13;5.53;;;23.70;79.60;;;;;;5029191;28;20212;-79
2023/08/12 08:44:20;;;;;;;11.97;6.37;;;23.80;79.40;;;;;;5028723;28;20451;-78
2023/08/12 08:46:53;;;;;;;9.83;6.20;;;23.90;79.20;;;;;;5020854;28;20467;-79
2023/08/12 08:49:23;;;;;;;9.53;6.37;;;23.90;79.20;;;;;;5029349;28;20494;-79
2023/08/12 08:51:53;;;;;;;12.00;6.13;;;23.90;79.10;;;;;;5023927;28;20487;-79
2023/08/12 08:54:22;;;;;;;7.83;5.53;;;24.00;79.20;;;;;;5018393;28;20456;-79
2023/08/12 08:56:50;;;;;;;8.33;5.37;;;24.00;79.20;;;;;;5022513;28;20917;-79
2023/08/12 08:59:35;;;;;;;11.43;6.43;;;24.00;79.10;;;;;;5021753;28;20440;-78
2023/08/12 09:02:05;;;;;;;10.10;5.97;;;24.10;78.90;;;;;;5023290;28;20473;-78
2023/08/12 09:04:35;;;;;;;12.80;6.10;;;24.10;78.70;;;;;;5026686;28;20466;-80
2023/08/12 09:07:04;;;;;;;12.17;6.80;;;24.10;78.60;;;;;;5022186;28;20468;-79
2023/08/12 09:09:35;;;;;;;24.93;7.10;;;24.10;78.80;;;;;;5023381;28;20595;-78
2023/08/12 09:12:06;;;;;;;10.03;7.13;;;24.10;79.00;;;;;;5020178;28;21039;-79
2023/08/12 09:14:35;;;;;;;11.80;7.63;;;24.10;79.20;;;;;;5021604;28;20477;-79
2023/08/12 09:17:03;;;;;;;11.57;6.70;;;24.10;79.30;;;;;;5021471;28;20455;-79
2023/08/12 09:19:31;;;;;;;11.20;6.77;;;24.10;79.30;;;;;;5034328;28;20439;-78
2023/08/12 09:22:13;;;;;;;10.43;6.80;;;24.10;79.30;;;;;;5024076;28;20921;-79
2023/08/12 09:24:46;;;;;;;9.07;6.50;;;24.10;79.20;;;;;;5024304;28;21026;-79
2023/08/12 09:27:19;;;;;;;13.03;6.50;;;24.10;79.10;;;;;;5022478;28;20886;-78
2023/08/12 09:29:47;;;;;;;10.10;6.60;;;24.20;79.20;;;;;;5039903;28;20484;-78
2023/08/12 09:32:20;;;;;;;9.70;6.77;;;24.10;79.20;;;;;;5023013;28;20566;-79
2023/08/12 09:34:49;;;;;;;9.53;6.90;;;24.10;79.30;;;;;;5023101;28;20467;-79
2023/08/12 09:37:18;;;;;;;8.87;6.37;;;24.20;79.40;;;;;;5027033;28;20468;-79
2023/08/12 09:39:48;;;;;;;11.03;6.90;;;24.20;79.30;;;;;;5026423;28;20702;-79
2023/08/12 09:42:16;;;;;;;12.20;7.10;;;24.20;79.40;;;;;;5039448;28;20547;-78
2023/08/12 09:44:45;;;;;;;10.23;7.10;;;24.30;79.40;;;;;;5024574;28;20587;-79
2023/08/12 09:47:14;;;;;;;10.90;7.30;;;24.30;79.50;;;;;;5022286;28;20487;-79
2023/08/12 09:49:42;;;;;;;9.80;7.13;;;24.30;79.60;;;;;;5027396;28;20496;-79
2023/08/12 09:52:12;;;;;;;10.87;7.07;;;24.40;79.60;;;;;;5023890;28;20519;-78
2023/08/12 09:54:43;;;;;;;10.87;6.50;;;24.40;79.50;;;;;;5022382;28;20463;-78
2023/08/12 09:57:15;;;;;;;14.23;7.77;;;24.50;79.40;;;;;;5024657;28;20873;-78
2023/08/12 09:59:46;;;;;;;12.17;8.00;;;24.50;79.40;;;;;;5028829;28;20488;-78
2023/08/12 10:02:19;;;;;;;10.13;5.80;;;24.50;79.30;;;;;;5024703;28;20487;-79
2023/08/12 10:04:50;;;;;;;13.07;7.07;;;24.60;79.50;;;;;;5021570;28;20465;-78
2023/08/12 10:07:19;;;;;;;15.07;6.97;;;24.70;79.40;;;;;;5019056;28;20487;-78
2023/08/12 10:09:48;;;;;;;14.63;6.67;;;24.80;79.30;;;;;;5017415;28;20482;-78
2023/08/12 10:12:19;;;;;;;9.30;7.23;;;24.90;79.20;;;;;;5020225;28;20547;-78
2023/08/12 10:14:48;;;;;;;12.83;7.20;;;24.90;79.10;;;;;;5019539;28;20466;-78
2023/08/12 10:17:16;;;;;;;10.70;6.17;;;25.00;79.10;;;;;;5019267;28;20453;-79
2023/08/12 10:20:06;;;;;;;13.70;7.07;;;25.10;79.10;;;;;;5021374;28;20555;-77
2023/08/12 10:22:37;;;;;;;9.37;6.30;;;25.20;79.00;;;;;;5027087;28;20555;-79
2023/08/12 10:25:07;;;;;;;9.93;6.07;;;25.20;78.70;;;;;;5023909;28;20550;-78
2023/08/12 10:27:37;;;;;;;10.33;6.17;;;25.30;78.60;;;;;;5025486;28;20478;-78
2023/08/12 10:30:07;;;;;;;13.00;6.43;;;25.30;78.40;;;;;;5024523;28;21080;-78
2023/08/12 10:32:35;;;;;;;11.17;6.37;;;25.40;78.30;;;;;;5020790;28;20462;-79
2023/08/12 10:35:05;;;;;;;13.30;11.90;;;25.40;78.00;;;;;;5022421;28;20467;-78
2023/08/12 10:37:35;;;;;;;9.83;6.80;;;25.40;78.00;;;;;;5024103;28;20985;-78
2023/08/12 10:40:07;;;;;;;8.33;5.83;;;25.50;77.90;;;;;;5017615;28;20464;-76
2023/08/12 10:42:44;;;;;;;11.90;6.90;;;25.60;77.50;;;;;;5020917;28;20483;-78
2023/08/12 10:45:14;;;;;;;9.13;5.83;;;25.70;77.10;;;;;;5024098;28;20568;-79
2023/08/12 10:47:44;;;;;;;8.87;6.20;;;25.80;77.10;;;;;;5026180;28;20459;-79
2023/08/12 10:50:19;;;;;;;11.70;5.33;;;25.90;77.00;;;;;;5028080;28;20559;-79
2023/08/12 10:52:51;;;;;;;9.90;5.77;;;26.10;76.50;;;;;;5021405;28;20511;-78
2023/08/12 10:55:23;;;;;;;9.07;5.63;;;26.20;76.00;;;;;;5022022;28;20554;-79
2023/08/12 10:57:54;;;;;;;8.30;5.67;;;26.20;75.70;;;;;;5019834;28;20881;-78
2023/08/12 11:00:25;;;;;;;8.30;4.70;;;26.40;75.50;;;;;;5020509;28;20468;-79
2023/08/12 11:02:55;;;;;;;8.50;5.50;;;26.50;75.00;;;;;;5018273;28;20563;-79
2023/08/12 11:05:26;;;;;;;8.87;4.97;;;26.50;74.60;;;;;;5026646;28;20924;-78
2023/08/12 11:08:00;;;;;;;7.93;5.40;;;26.50;74.30;;;;;;5020670;28;21184;-78
2023/08/12 11:10:32;;;;;;;7.90;5.50;;;26.50;74.10;;;;;;5024045;28;20871;-79
2023/08/12 11:13:04;;;;;;;13.23;5.87;;;26.60;73.90;;;;;;5017449;28;20509;-77
2023/08/12 11:15:34;;;;;;;9.33;5.63;;;26.60;73.80;;;;;;5022884;28;20509;-79
2023/08/12 11:18:04;;;;;;;9.23;5.33;;;26.60;73.50;;;;;;5014876;28;20463;-79
2023/08/12 11:20:34;;;;;;;11.60;6.10;;;26.60;73.40;;;;;;5017672;28;20463;-79
2023/08/12 11:23:03;;;;;;;7.57;5.13;;;26.70;73.30;;;;;;5018063;28;20463;-79
2023/08/12 11:25:32;;;;;;;7.70;5.27;;;26.70;73.00;;;;;;5023364;28;20566;-77
2023/08/12 11:28:00;;;;;;;8.60;5.80;;;26.70;72.80;;;;;;5025264;28;20463;-76
2023/08/12 11:30:29;;;;;;;9.20;5.30;;;26.80;72.60;;;;;;5023836;28;20508;-78
2023/08/12 11:33:01;;;;;;;8.00;5.70;;;26.80;72.50;;;;;;5025583;28;20467;-78
2023/08/12 11:35:30;;;;;;;12.70;5.10;;;26.80;72.30;;;;;;5019456;28;20463;-78
2023/08/12 11:37:59;;;;;;;7.17;5.60;;;26.90;72.30;;;;;;5021691;28;20471;-78
2023/08/12 11:40:28;;;;;;;11.07;5.40;;;26.90;72.30;;;;;;5054346;28;20494;-78
2023/08/12 11:42:56;;;;;;;7.60;5.60;;;27.00;72.20;;;;;;5020743;28;20467;-79
2023/08/12 11:45:26;;;;;;;7.70;5.47;;;27.10;71.80;;;;;;5018868;28;20492;-78
2023/08/12 11:47:56;;;;;;;12.90;5.90;;;27.10;71.60;;;;;;5025175;28;21040;-77
2023/08/12 11:50:26;;;;;;;8.73;6.50;;;27.10;71.60;;;;;;5021968;28;20493;-80
2023/08/12 11:52:56;;;;;;;10.43;6.40;;;27.10;71.50;;;;;;5022228;28;20832;-78
2023/08/12 11:55:26;;;;;;;9.20;5.93;;;27.10;71.40;;;;;;5030344;28;20473;-78
2023/08/12 11:57:54;;;;;;;14.23;7.83;;;27.00;71.40;;;;;;5025094;28;20471;-78
2023/08/12 12:00:23;;;;;;;10.80;6.17;;;27.00;71.40;;;;;;5023088;28;20559;-78
2023/08/12 12:02:54;;;;;;;8.60;6.27;;;26.90;71.40;;;;;;5022591;28;20490;-78
2023/08/12 12:05:24;;;;;;;8.33;6.50;;;26.90;71.50;;;;;;5018512;28;20591;-78
2023/08/12 12:07:53;;;;;;;10.97;6.00;;;26.80;71.80;;;;;;5023930;28;20451;-80
2023/08/12 12:10:27;;;;;;;9.07;6.30;;;26.60;72.10;;;;;;5022139;28;20554;-77
2023/08/12 12:13:01;;;;;;;12.00;5.90;;;26.50;72.30;;;;;;5021511;28;20515;-82
2023/08/12 12:15:43;;;;;;;12.93;6.67;;;26.40;72.70;;;;;;5027846;28;21015;-83
2023/08/12 12:18:12;;;;;;;12.63;6.27;;;26.10;73.90;;;;;;5024041;28;20555;-82
2023/08/12 12:20:56;;;;;;;11.30;2.93;;;25.80;74.80;;;;;;5024252;28;20547;-83
2023/08/12 12:23:28;;;;;;;11.50;5.40;;;25.20;75.90;;;;;;5015829;28;21076;-81
2023/08/12 12:26:00;;;;;;;7.97;4.03;;;24.70;76.90;;;;;;5049829;28;20474;-81
2023/08/12 12:28:29;;;;;;;13.70;5.47;;;24.30;77.60;;;;;;5023987;28;20455;-81
2023/08/12 12:30:57;;;;;;;17.37;6.33;;;24.10;78.20;;;;;;5028147;28;20478;-82
2023/08/12 12:33:25;;;;;;;12.27;6.17;;;24.00;78.60;;;;;;5024513;28;21153;-82
2023/08/12 12:35:55;;;;;;;13.50;5.70;;;23.90;79.00;;;;;;5020286;28;20971;-82
2023/08/12 12:38:28;;;;;;;14.30;5.63;;;23.80;79.50;;;;;;5048013;28;20482;-82
2023/08/12 12:40:57;;;;;;;9.43;4.87;;;23.80;79.70;;;;;;5028033;28;20500;-82
2023/08/12 12:43:35;;;;;;;8.40;4.47;;;23.70;79.90;;;;;;5021727;28;20467;-83
2023/08/12 12:46:07;;;;;;;8.30;3.80;;;23.70;80.10;;;;;;5026220;28;20451;-82
2023/08/12 12:48:37;;;;;;;8.20;4.07;;;23.70;80.20;;;;;;5021428;28;20463;-81
2023/08/12 12:51:09;;;;;;;7.83;4.60;;;23.60;80.30;;;;;;5025444;28;20468;-78